Time;durP1;ratioP1;P1;durP2;ratioP2;P2;SDS_P1;SDS_P2;PMS_P1;PMS_P2;Temp;Humidity;BMP_temperature;BMP_pressure;BME280_temperature;BME280_humidity;BME280_pressure;Samples;Min_cycle;Max_cycle;Signal;HPM_P1;HPM_P2
2024/03/25 00:00:25;;;;;;;9.13;6.50;;;9.30;99.90;;;;;;5094290;28;20411;-60
2024/03/25 00:02:51;;;;;;;10.33;6.43;;;9.30;99.90;;;;;;5094373;28;20168;-60
2024/03/25 00:05:22;;;;;;;19.40;7.30;;;9.20;99.90;;;;;;5093863;28;20437;-60
2024/03/25 00:07:48;;;;;;;9.43;6.90;;;9.10;99.90;;;;;;5094234;28;20954;-60
2024/03/25 00:10:15;;;;;;;14.90;7.90;;;9.10;99.90;;;;;;5095619;28;20925;-60
2024/03/25 00:12:40;;;;;;;12.50;6.83;;;9.10;99.90;;;;;;5115082;28;20475;-60
2024/03/25 00:15:07;;;;;;;11.77;6.90;;;9.10;99.90;;;;;;5114182;28;20934;-60
2024/03/25 00:17:33;;;;;;;10.00;6.30;;;9.10;99.90;;;;;;5115061;28;20175;-60
2024/03/25 00:19:59;;;;;;;10.37;6.70;;;9.10;99.90;;;;;;5113957;28;20406;-59
2024/03/25 00:22:25;;;;;;;15.40;6.80;;;9.10;99.90;;;;;;5114854;28;20402;-60
2024/03/25 00:24:51;;;;;;;14.20;7.47;;;9.10;99.90;;;;;;5103272;28;20201;-60
2024/03/25 00:27:18;;;;;;;9.20;7.33;;;9.10;99.90;;;;;;5093283;28;20407;-60
2024/03/25 00:29:44;;;;;;;12.07;6.87;;;9.10;99.90;;;;;;5094287;28;20399;-60
2024/03/25 00:32:10;;;;;;;13.17;7.20;;;9.10;99.90;;;;;;5092955;28;20444;-60
2024/03/25 00:34:36;;;;;;;9.93;6.33;;;9.10;99.90;;;;;;5093160;28;20412;-61
2024/03/25 00:37:06;;;;;;;13.70;7.33;;;9.10;99.90;;;;;;5093020;28;20452;-60
2024/03/25 00:39:32;;;;;;;12.30;7.20;;;9.10;99.90;;;;;;5093965;28;20495;-60
2024/03/25 00:41:58;;;;;;;9.50;7.10;;;9.00;99.90;;;;;;5110703;28;20468;-60
2024/03/25 00:44:24;;;;;;;12.40;7.43;;;9.10;99.90;;;;;;5104692;28;20445;-60
2024/03/25 00:46:51;;;;;;;17.13;7.30;;;9.10;99.90;;;;;;5093568;28;20438;-60
2024/03/25 00:49:17;;;;;;;8.10;6.93;;;9.00;99.90;;;;;;5093254;28;21015;-60
2024/03/25 00:51:42;;;;;;;9.50;6.70;;;9.10;99.90;;;;;;5093841;28;20420;-60
2024/03/25 00:54:08;;;;;;;15.80;7.53;;;9.00;99.90;;;;;;5092942;28;20206;-60
2024/03/25 00:56:34;;;;;;;15.40;6.97;;;9.10;99.90;;;;;;5094067;28;20256;-60
2024/03/25 00:59:02;;;;;;;9.70;6.90;;;9.00;99.90;;;;;;5092811;28;20529;-60
2024/03/25 01:01:29;;;;;;;12.97;7.37;;;9.10;99.90;;;;;;5093619;28;20164;-60
2024/03/25 01:03:55;;;;;;;10.90;7.37;;;9.10;99.90;;;;;;5093401;28;20422;-60
2024/03/25 01:06:21;;;;;;;14.27;8.07;;;9.10;99.90;;;;;;5092748;28;20424;-60
2024/03/25 01:08:47;;;;;;;20.60;7.50;;;9.00;99.90;;;;;;5093573;28;20464;-60
2024/03/25 01:11:12;;;;;;;15.30;7.23;;;9.00;99.90;;;;;;5105099;28;20180;-60
2024/03/25 01:13:38;;;;;;;12.70;7.67;;;9.10;99.90;;;;;;5109953;28;20225;-60
2024/03/25 01:16:04;;;;;;;15.47;8.60;;;9.00;99.90;;;;;;5092428;28;20619;-59
2024/03/25 01:18:30;;;;;;;19.73;8.80;;;9.10;99.90;;;;;;5093128;28;20649;-59
2024/03/25 01:20:55;;;;;;;18.50;9.17;;;9.00;99.90;;;;;;5093249;28;20414;-59
2024/03/25 01:23:21;;;;;;;13.67;8.00;;;8.90;99.90;;;;;;5092504;28;20424;-59
2024/03/25 01:25:47;;;;;;;14.03;8.17;;;8.90;99.90;;;;;;5093280;28;20173;-59
2024/03/25 01:28:13;;;;;;;16.50;8.50;;;8.90;99.90;;;;;;5092393;28;20251;-59
2024/03/25 01:30:39;;;;;;;15.00;7.90;;;8.90;99.90;;;;;;5093450;28;20166;-59
2024/03/25 01:33:05;;;;;;;24.23;10.40;;;9.00;99.90;;;;;;5092166;28;20255;-59
2024/03/25 01:35:31;;;;;;;22.70;9.07;;;9.00;99.90;;;;;;5093072;28;20443;-59
2024/03/25 01:37:57;;;;;;;16.17;9.23;;;9.00;99.90;;;;;;5093187;28;20988;-59
2024/03/25 01:40:23;;;;;;;18.00;8.53;;;9.00;99.90;;;;;;5098318;28;20497;-59
2024/03/25 01:42:59;;;;;;;14.53;8.13;;;9.10;99.90;;;;;;5112009;28;20547;-59
2024/03/25 01:45:32;;;;;;;22.50;9.13;;;9.00;99.90;;;;;;5094397;28;20410;-59
2024/03/25 01:48:07;;;;;;;17.97;8.67;;;9.10;99.90;;;;;;5113328;28;20387;-59
2024/03/25 01:50:37;;;;;;;17.63;9.03;;;9.00;99.90;;;;;;5094042;28;20381;-59
2024/03/25 01:53:04;;;;;;;14.17;8.67;;;9.00;99.90;;;;;;5091784;28;20927;-59
2024/03/25 01:55:32;;;;;;;15.57;9.40;;;9.00;99.90;;;;;;5092367;28;20419;-59
2024/03/25 01:57:58;;;;;;;15.27;8.90;;;9.00;99.90;;;;;;5092612;28;20439;-59
2024/03/25 02:00:26;;;;;;;12.60;8.57;;;9.00;99.90;;;;;;5091599;28;20511;-59
2024/03/25 02:02:53;;;;;;;15.93;8.43;;;9.00;99.90;;;;;;5092244;28;20419;-59
2024/03/25 02:05:19;;;;;;;14.60;7.70;;;9.00;99.90;;;;;;5091524;28;20478;-59
2024/03/25 02:07:45;;;;;;;18.03;7.60;;;9.00;99.90;;;;;;5092187;28;20424;-59
2024/03/25 02:10:14;;;;;;;14.77;6.93;;;9.00;99.90;;;;;;5094817;28;20514;-59
2024/03/25 02:12:43;;;;;;;17.50;7.37;;;9.00;99.90;;;;;;5108666;28;20447;-59
2024/03/25 02:15:11;;;;;;;16.93;7.80;;;9.10;99.90;;;;;;5091372;28;20451;-59
2024/03/25 02:17:37;;;;;;;16.63;8.03;;;9.10;99.90;;;;;;5092011;28;20403;-59
2024/03/25 02:20:05;;;;;;;15.37;7.23;;;9.10;99.90;;;;;;5092105;28;20891;-59
2024/03/25 02:22:32;;;;;;;17.50;6.90;;;9.20;99.90;;;;;;5092415;28;20410;-59
2024/03/25 02:24:59;;;;;;;14.97;6.90;;;9.10;99.90;;;;;;5092659;28;20823;-59
2024/03/25 02:27:28;;;;;;;19.80;7.93;;;9.20;99.90;;;;;;5091546;28;20429;-59
2024/03/25 02:29:54;;;;;;;14.00;6.77;;;9.20;99.90;;;;;;5092023;28;20720;-59
2024/03/25 02:32:20;;;;;;;11.20;7.07;;;9.10;99.90;;;;;;5091603;28;20500;-59
2024/03/25 02:34:49;;;;;;;12.63;7.17;;;9.20;99.90;;;;;;5092276;28;20918;-59
2024/03/25 02:37:15;;;;;;;16.20;6.97;;;9.20;99.90;;;;;;5091351;28;20825;-59
2024/03/25 02:39:41;;;;;;;11.07;6.90;;;9.20;99.90;;;;;;5094563;28;20774;-59
2024/03/25 02:42:07;;;;;;;18.23;7.20;;;9.20;99.90;;;;;;5112243;28;20412;-59
2024/03/25 02:44:34;;;;;;;10.43;7.00;;;9.10;99.90;;;;;;5104203;28;20420;-59
2024/03/25 02:47:00;;;;;;;15.93;8.20;;;9.20;99.90;;;;;;5091569;28;20447;-59
2024/03/25 02:49:25;;;;;;;11.00;7.40;;;9.10;99.90;;;;;;5073082;28;21120;-59
2024/03/25 02:51:51;;;;;;;11.23;6.80;;;9.10;99.90;;;;;;5091525;28;20464;-59
2024/03/25 02:54:17;;;;;;;13.83;6.63;;;9.00;99.90;;;;;;5095592;28;20181;-59
2024/03/25 02:56:43;;;;;;;22.70;8.00;;;9.00;99.90;;;;;;5098671;28;20836;-59
2024/03/25 02:59:09;;;;;;;12.37;7.43;;;9.00;99.90;;;;;;5100512;28;20174;-59
2024/03/25 03:01:35;;;;;;;11.43;6.93;;;;;;;;;;5095830;28;20796;-59
2024/03/25 03:04:01;;;;;;;13.53;7.40;;;9.00;99.90;;;;;;5095696;28;20411;-59
2024/03/25 03:06:27;;;;;;;16.87;7.70;;;9.00;99.90;;;;;;5095046;28;21022;-59
2024/03/25 03:08:53;;;;;;;13.73;7.90;;;9.00;99.90;;;;;;5095328;28;20192;-59
2024/03/25 03:11:19;;;;;;;19.03;7.63;;;8.90;99.90;;;;;;5075483;28;20176;-59
2024/03/25 03:13:44;;;;;;;13.40;7.30;;;9.00;99.90;;;;;;5095579;28;20451;-59
2024/03/25 03:16:10;;;;;;;11.30;7.00;;;9.00;99.90;;;;;;5060047;28;20192;-59
2024/03/25 03:18:36;;;;;;;13.37;6.20;;;8.90;99.90;;;;;;5095825;28;20169;-59
2024/03/25 03:21:02;;;;;;;10.80;6.60;;;;;;;;;;5095951;28;20227;-59
2024/03/25 03:23:27;;;;;;;10.63;7.20;;;8.90;99.90;;;;;;5094830;28;20180;-59
2024/03/25 03:25:53;;;;;;;17.07;6.87;;;8.90;99.90;;;;;;5077588;28;20769;-59
2024/03/25 03:28:19;;;;;;;13.57;7.00;;;9.00;99.90;;;;;;5094716;28;20171;-59
2024/03/25 03:30:44;;;;;;;10.53;7.63;;;9.00;99.90;;;;;;5095733;28;20217;-59
2024/03/25 03:33:11;;;;;;;18.57;8.13;;;9.00;99.90;;;;;;5094473;28;20583;-59
2024/03/25 03:35:36;;;;;;;16.40;7.57;;;9.00;99.90;;;;;;5095380;28;20225;-59
2024/03/25 03:38:02;;;;;;;11.63;7.13;;;9.00;99.90;;;;;;5095036;28;20451;-59
2024/03/25 03:40:29;;;;;;;19.17;8.73;;;9.00;99.90;;;;;;5101511;28;20222;-59
2024/03/25 03:42:55;;;;;;;16.00;8.10;;;9.00;99.90;;;;;;5115600;28;20405;-59
2024/03/25 03:45:23;;;;;;;15.03;8.63;;;9.00;99.90;;;;;;5096482;28;20406;-59
2024/03/25 03:47:49;;;;;;;14.37;7.90;;;9.10;99.90;;;;;;5115567;28;20403;-59
2024/03/25 03:50:15;;;;;;;15.83;8.50;;;9.00;99.90;;;;;;5114615;28;20762;-59
2024/03/25 03:52:41;;;;;;;15.63;7.80;;;8.90;99.90;;;;;;5101817;28;20278;-59
2024/03/25 03:55:07;;;;;;;11.33;7.73;;;9.00;99.90;;;;;;5094860;28;20419;-59
2024/03/25 03:57:33;;;;;;;17.50;9.00;;;9.00;99.90;;;;;;5094429;28;20165;-59
2024/03/25 03:59:58;;;;;;;18.40;8.90;;;9.00;99.90;;;;;;5097763;28;20475;-59
2024/03/25 04:02:28;;;;;;;18.60;9.50;;;8.90;99.90;;;;;;5108940;28;20665;-59
2024/03/25 04:04:54;;;;;;;20.73;9.97;;;9.00;99.90;;;;;;5083779;28;20397;-60
2024/03/25 04:07:20;;;;;;;15.60;9.43;;;8.90;99.90;;;;;;5094013;28;20413;-59
2024/03/25 04:09:46;;;;;;;14.87;10.20;;;8.90;99.90;;;;;;5094222;28;20750;-60
2024/03/25 04:12:12;;;;;;;17.20;9.43;;;8.90;99.90;;;;;;5093249;28;20450;-59
2024/03/25 04:14:38;;;;;;;15.37;9.63;;;8.90;99.90;;;;;;5094551;28;20201;-60
2024/03/25 04:17:04;;;;;;;18.67;10.00;;;8.90;99.90;;;;;;5094168;28;20168;-59
2024/03/25 04:19:30;;;;;;;21.47;10.87;;;8.90;99.90;;;;;;5093607;28;20408;-59
2024/03/25 04:21:56;;;;;;;20.47;9.53;;;8.90;99.90;;;;;;5096471;28;20487;-61
2024/03/25 04:24:21;;;;;;;14.20;8.80;;;8.90;99.90;;;;;;5099653;28;20191;-59
2024/03/25 04:26:47;;;;;;;21.80;9.63;;;8.90;99.90;;;;;;5114748;28;20635;-59
2024/03/25 04:29:16;;;;;;;21.80;9.43;;;8.90;99.90;;;;;;5112581;28;20179;-59
2024/03/25 04:31:41;;;;;;;15.93;9.03;;;8.90;99.90;;;;;;5114612;28;20411;-61
2024/03/25 04:34:07;;;;;;;17.77;9.20;;;9.00;99.90;;;;;;5096219;28;20438;-60
2024/03/25 04:36:33;;;;;;;18.33;9.30;;;8.90;99.90;;;;;;5093136;28;20341;-60
2024/03/25 04:38:58;;;;;;;13.80;8.97;;;8.90;99.90;;;;;;5094075;28;20177;-59
2024/03/25 04:41:25;;;;;;;16.10;9.37;;;8.90;99.90;;;;;;5092868;28;20173;-59
2024/03/25 04:43:51;;;;;;;17.13;9.60;;;8.90;99.90;;;;;;5072229;28;20178;-59
2024/03/25 04:46:16;;;;;;;20.77;8.70;;;9.00;99.90;;;;;;5093196;28;20403;-59
2024/03/25 04:48:42;;;;;;;15.17;8.90;;;9.00;99.90;;;;;;5093825;28;20178;-59
2024/03/25 04:51:09;;;;;;;14.90;8.53;;;8.90;99.90;;;;;;5075575;28;20544;-59
2024/03/25 04:53:34;;;;;;;14.93;7.97;;;8.90;99.90;;;;;;5093875;28;20197;-59
2024/03/25 04:56:00;;;;;;;19.47;8.87;;;8.90;99.90;;;;;;5093782;28;20415;-59
2024/03/25 04:58:26;;;;;;;15.23;8.33;;;8.90;99.90;;;;;;5093010;28;20940;-59
2024/03/25 05:00:52;;;;;;;15.10;8.27;;;8.80;99.90;;;;;;5093670;28;20170;-59
2024/03/25 05:03:18;;;;;;;17.50;8.80;;;8.80;99.90;;;;;;5092488;28;20746;-59
2024/03/25 05:05:44;;;;;;;22.03;9.53;;;8.90;99.90;;;;;;5092850;28;20268;-59
2024/03/25 05:08:09;;;;;;;14.70;8.37;;;8.90;99.90;;;;;;5074938;28;20495;-59
2024/03/25 05:10:35;;;;;;;16.93;9.60;;;8.90;99.90;;;;;;5092081;28;20171;-59
2024/03/25 05:13:01;;;;;;;14.57;8.70;;;8.90;99.90;;;;;;5093412;28;20255;-59
2024/03/25 05:15:27;;;;;;;15.33;9.20;;;8.90;99.90;;;;;;5092701;28;20284;-59
2024/03/25 05:17:52;;;;;;;15.73;8.20;;;8.90;99.90;;;;;;5074905;28;20186;-59
2024/03/25 05:20:18;;;;;;;14.50;7.70;;;8.90;99.90;;;;;;5091727;28;20173;-59
2024/03/25 05:22:44;;;;;;;12.70;8.00;;;8.90;99.90;;;;;;5097830;28;20173;-58
2024/03/25 05:25:10;;;;;;;14.43;7.50;;;9.00;99.90;;;;;;5088350;28;20911;-58
2024/03/25 05:27:35;;;;;;;14.03;9.77;;;9.00;99.90;;;;;;5093744;28;20188;-59
2024/03/25 05:30:02;;;;;;;18.00;9.40;;;8.90;99.90;;;;;;5104429;28;20177;-58
2024/03/25 05:32:28;;;;;;;13.67;8.63;;;9.00;99.90;;;;;;5092058;28;20206;-58
2024/03/25 05:34:53;;;;;;;20.70;10.67;;;8.90;99.90;;;;;;5089888;28;20587;-58
2024/03/25 05:37:19;;;;;;;15.57;8.40;;;8.90;99.90;;;;;;5101978;28;20220;-58
2024/03/25 05:39:45;;;;;;;15.10;8.70;;;9.00;99.90;;;;;;5093243;28;20172;-60
2024/03/25 05:42:10;;;;;;;14.00;8.10;;;9.00;99.90;;;;;;5092795;28;20631;-59
2024/03/25 05:44:36;;;;;;;19.90;10.70;;;9.00;99.90;;;;;;5091659;28;20866;-59
2024/03/25 05:47:02;;;;;;;16.83;11.80;;;9.00;99.90;;;;;;5092579;28;20186;-60
2024/03/25 05:49:28;;;;;;;17.13;10.20;;;9.00;99.90;;;;;;5091932;28;20616;-59
2024/03/25 05:51:54;;;;;;;13.30;7.63;;;9.00;99.90;;;;;;5092636;28;20406;-60
2024/03/25 05:54:19;;;;;;;22.27;8.67;;;9.00;99.90;;;;;;5091485;28;20181;-59
2024/03/25 05:56:45;;;;;;;11.50;8.30;;;9.00;99.90;;;;;;5097155;28;20571;-60
2024/03/25 05:59:11;;;;;;;18.87;9.27;;;9.00;99.90;;;;;;5092313;28;20174;-60
2024/03/25 06:01:37;;;;;;;20.00;10.37;;;9.00;99.90;;;;;;5091861;28;20200;-60
2024/03/25 06:04:03;;;;;;;21.40;10.70;;;9.00;99.90;;;;;;5104887;28;20517;-60
2024/03/25 06:06:29;;;;;;;16.17;10.80;;;9.10;99.90;;;;;;5112255;28;20862;-59
2024/03/25 06:08:55;;;;;;;15.93;9.10;;;9.00;99.90;;;;;;5112847;28;20460;-60
2024/03/25 06:11:21;;;;;;;16.97;9.63;;;9.10;99.90;;;;;;5112134;28;20302;-59
2024/03/25 06:13:47;;;;;;;16.90;9.00;;;9.10;99.90;;;;;;5112788;28;20200;-60
2024/03/25 06:16:13;;;;;;;12.47;8.67;;;9.10;99.90;;;;;;5097029;28;20185;-60
2024/03/25 06:18:40;;;;;;;20.63;9.20;;;9.10;99.90;;;;;;5073309;28;20402;-59
2024/03/25 06:21:06;;;;;;;16.40;8.70;;;9.10;99.90;;;;;;5091040;28;20415;-59
2024/03/25 06:23:32;;;;;;;14.47;8.00;;;9.10;99.90;;;;;;5091622;28;20414;-59
2024/03/25 06:25:58;;;;;;;11.23;7.50;;;9.10;99.90;;;;;;5092320;28;20408;-60
2024/03/25 06:28:24;;;;;;;15.93;11.10;;;9.20;99.90;;;;;;5091522;28;20406;-59
2024/03/25 06:36:21;;;;;;;13.90;7.80;;;9.30;99.90;;;;;;5095241;28;20464;-58
2024/03/25 06:38:47;;;;;;;14.33;10.00;;;9.20;99.90;;;;;;5096141;28;20458;-60
2024/03/25 06:41:13;;;;;;;14.40;8.63;;;9.20;99.90;;;;;;5096642;28;20956;-60
2024/03/25 06:43:39;;;;;;;18.73;8.07;;;9.20;99.90;;;;;;5095310;28;20185;-60
2024/03/25 06:46:08;;;;;;;20.23;8.50;;;9.20;99.90;;;;;;5096464;28;20421;-60
2024/03/25 06:48:37;;;;;;;16.43;8.00;;;9.20;99.90;;;;;;5076861;28;20417;-59
2024/03/25 06:51:03;;;;;;;13.13;8.50;;;9.30;99.90;;;;;;5096119;28;20426;-60
2024/03/25 06:53:29;;;;;;;12.63;8.47;;;9.30;99.90;;;;;;5094085;28;20445;-59
2024/03/25 06:55:56;;;;;;;12.77;8.13;;;9.40;99.90;;;;;;5079590;28;20435;-60
2024/03/25 06:58:25;;;;;;;15.47;8.43;;;9.40;99.90;;;;;;5094687;28;20417;-58
2024/03/25 07:00:51;;;;;;;12.30;7.70;;;9.50;99.90;;;;;;5074709;28;20822;-60
2024/03/25 07:03:18;;;;;;;13.20;7.30;;;9.40;99.90;;;;;;5087402;28;20505;-60
2024/03/25 07:05:48;;;;;;;17.03;9.77;;;9.40;99.90;;;;;;5094630;28;20486;-60
2024/03/25 07:08:15;;;;;;;12.17;7.03;;;9.50;99.90;;;;;;5077723;28;20454;-60
2024/03/25 07:10:44;;;;;;;16.13;6.90;;;9.50;99.90;;;;;;5095000;28;20437;-60
2024/03/25 07:13:10;;;;;;;15.20;7.20;;;9.50;99.90;;;;;;5095596;28;20449;-60
2024/03/25 07:15:36;;;;;;;12.70;8.47;;;9.60;99.90;;;;;;5095065;28;20449;-60
2024/03/25 07:18:03;;;;;;;14.47;5.77;;;9.70;99.90;;;;;;5094845;28;20498;-60
2024/03/25 07:20:30;;;;;;;14.47;6.40;;;9.70;99.90;;;;;;5094671;28;20419;-60
2024/03/25 07:22:56;;;;;;;16.23;7.17;;;9.70;99.90;;;;;;5095446;28;20423;-60
2024/03/25 07:25:25;;;;;;;13.03;8.50;;;9.80;99.90;;;;;;5095003;28;20508;-60
2024/03/25 07:27:52;;;;;;;9.50;7.33;;;9.80;99.90;;;;;;5093936;28;20429;-60
2024/03/25 07:30:18;;;;;;;10.80;6.70;;;9.90;99.90;;;;;;5095514;28;20398;-60
2024/03/25 07:32:45;;;;;;;10.80;6.30;;;9.90;99.90;;;;;;5095759;28;20480;-60
2024/03/25 07:35:11;;;;;;;11.30;5.50;;;10.00;99.90;;;;;;5075121;28;20407;-60
2024/03/25 07:37:37;;;;;;;8.53;5.50;;;10.00;99.90;;;;;;5088416;28;20547;-64
2024/03/25 07:40:03;;;;;;;9.80;6.53;;;10.00;99.90;;;;;;5076698;28;20414;-61
2024/03/25 07:42:30;;;;;;;12.70;5.77;;;10.00;99.90;;;;;;5094007;28;20413;-61
2024/03/25 07:44:56;;;;;;;10.73;6.40;;;10.00;99.90;;;;;;5094777;28;20409;-61
2024/03/25 07:47:22;;;;;;;11.97;5.90;;;10.10;99.90;;;;;;5094691;28;20405;-61
2024/03/25 07:49:47;;;;;;;18.20;7.00;;;10.10;99.90;;;;;;5099739;28;20427;-61
2024/03/25 07:52:13;;;;;;;9.57;5.93;;;10.20;99.90;;;;;;5112329;28;20247;-61
2024/03/25 07:54:39;;;;;;;11.97;5.73;;;10.20;99.90;;;;;;5114603;28;20184;-61
2024/03/25 07:57:05;;;;;;;13.53;7.90;;;10.20;99.90;;;;;;5115348;28;20401;-61
2024/03/25 07:59:31;;;;;;;12.80;5.20;;;10.20;99.90;;;;;;5114504;28;20899;-61
2024/03/25 08:01:57;;;;;;;12.00;4.40;;;10.20;99.90;;;;;;5115065;28;20166;-61
2024/03/25 08:04:22;;;;;;;11.30;5.10;;;10.30;99.90;;;;;;5115201;28;20176;-61
2024/03/25 08:06:48;;;;;;;17.17;5.60;;;10.40;99.90;;;;;;5106524;28;20452;-61
2024/03/25 08:09:15;;;;;;;11.67;4.37;;;10.50;99.90;;;;;;5113985;28;20168;-61
2024/03/25 08:11:43;;;;;;;9.37;3.80;;;10.50;99.90;;;;;;5114288;28;20492;-62
2024/03/25 08:14:09;;;;;;;12.20;4.67;;;10.60;99.90;;;;;;5114795;28;20516;-62
2024/03/25 08:16:35;;;;;;;11.07;6.57;;;10.60;99.90;;;;;;5114639;28;20410;-63
2024/03/25 08:19:01;;;;;;;7.77;5.33;;;10.70;99.90;;;;;;5114986;28;20413;-63
2024/03/25 08:21:27;;;;;;;11.27;5.17;;;10.80;99.90;;;;;;5114058;28;20420;-63
2024/03/25 08:23:53;;;;;;;14.07;5.07;;;10.80;99.90;;;;;;5097092;28;20861;-63
2024/03/25 08:26:18;;;;;;;12.23;4.47;;;10.90;99.90;;;;;;5114980;28;20166;-63
2024/03/25 08:28:45;;;;;;;19.17;4.60;;;11.00;99.90;;;;;;5096370;28;20196;-63
2024/03/25 08:31:10;;;;;;;12.73;5.07;;;11.00;99.90;;;;;;5115097;28;20168;-62
2024/03/25 08:33:36;;;;;;;10.90;4.57;;;11.00;99.90;;;;;;5096078;28;20857;-63
2024/03/25 08:36:03;;;;;;;10.60;4.60;;;11.00;99.90;;;;;;5114676;28;20178;-62
2024/03/25 08:38:29;;;;;;;12.60;5.47;;;11.00;99.90;;;;;;5095069;28;20224;-63
2024/03/25 08:40:54;;;;;;;10.77;4.90;;;11.10;99.90;;;;;;5115181;28;20407;-62
2024/03/25 08:43:20;;;;;;;9.87;4.53;;;11.00;99.90;;;;;;5114919;28;20168;-63
2024/03/25 08:45:46;;;;;;;14.53;5.00;;;11.10;99.90;;;;;;5114290;28;20199;-62
2024/03/25 08:48:12;;;;;;;9.70;4.47;;;11.20;99.90;;;;;;5111618;28;20204;-62
2024/03/25 08:50:38;;;;;;;11.07;4.70;;;11.20;99.90;;;;;;5114116;28;20716;-62
2024/03/25 08:53:04;;;;;;;8.93;4.43;;;11.30;99.90;;;;;;5114564;28;20196;-62
2024/03/25 08:55:31;;;;;;;6.70;4.43;;;11.40;99.90;;;;;;5107305;28;20177;-62
2024/03/25 08:58:00;;;;;;;7.87;4.47;;;11.40;99.90;;;;;;5114571;28;20488;-63
2024/03/25 09:00:27;;;;;;;13.23;5.37;;;11.20;99.90;;;;;;5113951;28;20753;-63
2024/03/25 09:02:53;;;;;;;10.10;4.10;;;11.20;99.90;;;;;;5114352;28;20787;-62
2024/03/25 09:05:19;;;;;;;6.20;3.63;;;11.30;99.90;;;;;;5114479;28;20398;-63
2024/03/25 09:07:49;;;;;;;7.57;3.60;;;11.30;99.90;;;;;;5114077;28;20817;-63
2024/03/25 09:12:59;;;;;;;7.50;3.33;;;11.30;99.90;;;;;;5114317;28;20522;-62
2024/03/25 09:15:25;;;;;;;7.50;3.90;;;11.40;99.90;;;;;;5096355;28;20493;-62
2024/03/25 09:17:51;;;;;;;9.80;4.60;;;11.40;99.90;;;;;;5114210;28;20168;-63
2024/03/25 09:20:17;;;;;;;5.70;3.47;;;11.40;99.90;;;;;;5113843;28;20900;-62
2024/03/25 09:22:48;;;;;;;5.87;4.00;;;11.50;99.90;;;;;;5113627;28;20206;-62
2024/03/25 09:25:15;;;;;;;9.17;4.07;;;11.60;99.90;;;;;;5110517;28;20619;-62
2024/03/25 09:27:41;;;;;;;8.63;3.40;;;11.60;97.70;;;;;;5113685;28;20407;-63
2024/03/25 09:30:10;;;;;;;5.53;4.30;;;11.80;98.70;;;;;;5114024;28;20406;-63
2024/03/25 09:32:36;;;;;;;5.63;3.33;;;11.90;99.00;;;;;;5113353;28;20467;-63
2024/03/25 09:35:02;;;;;;;51.97;16.53;;;12.10;96.30;;;;;;5095723;28;20404;-62
2024/03/25 09:37:29;;;;;;;8.83;4.30;;;12.20;95.40;;;;;;5112981;28;20452;-62
2024/03/25 09:39:55;;;;;;;6.50;4.20;;;12.30;94.30;;;;;;5095633;28;20243;-63
2024/03/25 09:42:30;;;;;;;6.67;3.80;;;12.50;94.50;;;;;;5095559;28;20902;-63
2024/03/25 09:44:56;;;;;;;6.83;4.63;;;12.60;94.30;;;;;;5113734;28;20182;-63
2024/03/25 09:47:23;;;;;;;6.87;4.30;;;12.80;94.40;;;;;;5110877;28;20494;-63
2024/03/25 09:49:51;;;;;;;8.20;4.23;;;12.90;94.70;;;;;;5112513;28;20432;-63
2024/03/25 09:52:18;;;;;;;9.40;4.13;;;12.80;94.80;;;;;;5113461;28;20456;-63
2024/03/25 09:54:44;;;;;;;9.63;4.00;;;12.80;95.10;;;;;;5112909;28;20492;-62
2024/03/25 09:57:11;;;;;;;10.17;4.00;;;12.90;96.50;;;;;;5095280;28;20435;-63
2024/03/25 09:59:37;;;;;;;8.67;4.20;;;13.00;96.40;;;;;;5112821;28;20416;-63
2024/03/25 10:02:03;;;;;;;13.13;4.40;;;13.20;96.50;;;;;;5113394;28;20400;-63
2024/03/25 10:04:29;;;;;;;5.47;3.70;;;13.40;96.60;;;;;;5112672;28;20820;-63
2024/03/25 10:06:55;;;;;;;6.03;4.00;;;13.60;94.90;;;;;;5095334;28;20753;-63
2024/03/25 10:09:22;;;;;;;4.70;3.63;;;13.90;93.40;;;;;;5095158;28;20803;-63
2024/03/25 10:11:50;;;;;;;8.87;3.67;;;14.10;91.40;;;;;;5113014;28;20403;-63
2024/03/25 10:14:16;;;;;;;4.30;3.60;;;14.30;90.50;;;;;;5113268;28;20457;-62
2024/03/25 10:16:43;;;;;;;3.00;2.80;;;14.50;90.40;;;;;;5112651;28;20414;-63
2024/03/25 10:19:09;;;;;;;7.00;3.57;;;14.80;87.40;;;;;;5107334;28;20542;-63
2024/03/25 10:21:35;;;;;;;16.87;10.83;;;15.00;87.70;;;;;;5111202;28;20919;-63
2024/03/25 10:24:04;;;;;;;8.50;4.13;;;15.20;82.60;;;;;;5113216;28;20411;-63
2024/03/25 10:26:31;;;;;;;8.00;3.50;;;15.20;82.50;;;;;;5112866;28;20864;-63
2024/03/25 10:29:07;;;;;;;4.57;3.53;;;15.10;80.30;;;;;;5095029;28;20408;-63
2024/03/25 10:31:34;;;;;;;3.83;3.30;;;14.90;78.50;;;;;;5112486;28;20400;-63
2024/03/25 10:34:00;;;;;;;4.70;3.13;;;14.80;81.30;;;;;;5112966;28;20471;-63
2024/03/25 10:36:26;;;;;;;3.80;3.30;;;14.70;80.20;;;;;;5109717;28;20426;-62
2024/03/25 10:38:56;;;;;;;5.73;3.10;;;14.50;78.70;;;;;;5112504;28;20414;-63
2024/03/25 10:41:22;;;;;;;4.33;3.77;;;14.30;81.00;;;;;;5113005;28;20819;-63
2024/03/25 10:43:49;;;;;;;3.83;3.50;;;14.20;79.80;;;;;;5112390;28;20395;-63
2024/03/25 10:46:21;;;;;;;7.63;4.00;;;14.10;78.30;;;;;;5112715;28;20451;-62
2024/03/25 10:49:01;;;;;;;4.00;3.70;;;13.90;78.60;;;;;;5112272;28;20402;-62
2024/03/25 10:51:28;;;;;;;4.77;3.57;;;13.90;79.00;;;;;;5098240;28;20465;-62
2024/03/25 10:53:55;;;;;;;3.23;2.93;;;13.90;81.40;;;;;;5091608;28;20760;-63
2024/03/25 10:56:21;;;;;;;5.20;4.10;;;14.00;82.90;;;;;;5092492;28;20407;-66
2024/03/25 10:58:48;;;;;;;3.80;3.60;;;15.30;96.90;;;;;;5092113;28;20467;-66
2024/03/25 11:01:18;;;;;;;3.43;3.13;;;16.10;86.20;;;;;;5092728;28;20412;-66
2024/03/25 11:03:46;;;;;;;3.60;3.40;;;16.20;74.20;;;;;;5091853;28;20405;-65
2024/03/25 11:06:12;;;;;;;4.10;3.67;;;16.20;72.00;;;;;;5088490;28;20461;-66
2024/03/25 11:08:39;;;;;;;4.00;3.60;;;16.20;82.30;;;;;;5094315;28;20830;-65
2024/03/25 11:11:05;;;;;;;3.80;2.97;;;16.30;83.20;;;;;;5112780;28;20191;-66
2024/03/25 11:13:32;;;;;;;9.97;4.90;;;16.60;80.30;;;;;;5112517;28;20837;-66
2024/03/25 11:15:59;;;;;;;6.77;4.30;;;16.90;85.30;;;;;;5112659;28;20398;-66
2024/03/25 11:18:25;;;;;;;6.53;4.80;;;17.30;83.00;;;;;;5113730;28;20389;-67
2024/03/25 11:21:06;;;;;;;4.00;3.70;;;17.70;84.70;;;;;;5097630;28;20877;-66
2024/03/25 11:23:42;;;;;;;4.07;3.70;;;18.00;74.50;;;;;;5098207;28;20799;-66
2024/03/25 11:26:20;;;;;;;7.10;3.30;;;18.00;74.90;;;;;;5116680;28;20427;-66
2024/03/25 11:28:46;;;;;;;7.13;3.93;;;18.10;69.70;;;;;;5115097;28;20393;-66
2024/03/25 11:31:12;;;;;;;54.87;37.23;;;17.90;71.00;;;;;;5115877;28;20484;-66
2024/03/25 11:33:39;;;;;;;102.30;74.87;;;17.90;73.30;;;;;;5115147;28;20203;-65
2024/03/25 11:36:05;;;;;;;15.10;11.30;;;17.80;64.60;;;;;;5111589;28;20424;-66
2024/03/25 11:38:31;;;;;;;7.77;5.20;;;17.90;77.60;;;;;;5111391;28;20441;-63
2024/03/25 11:40:57;;;;;;;5.47;3.13;;;18.20;69.70;;;;;;5095226;28;20767;-64
2024/03/25 11:43:23;;;;;;;3.87;3.50;;;18.20;63.20;;;;;;5116028;28;20228;-64
2024/03/25 11:45:49;;;;;;;3.97;3.77;;;18.20;63.60;;;;;;5115143;28;20402;-63
2024/03/25 11:48:16;;;;;;;3.87;3.50;;;18.20;63.10;;;;;;5103027;28;20531;-63
2024/03/25 11:50:44;;;;;;;4.03;3.30;;;17.90;59.20;;;;;;5094981;28;20418;-63
2024/03/25 11:53:10;;;;;;;5.60;3.80;;;17.70;61.00;;;;;;5100298;28;20460;-63
2024/03/25 11:55:36;;;;;;;3.73;3.40;;;17.90;64.40;;;;;;5097051;28;20397;-63
2024/03/25 11:58:02;;;;;;;4.10;3.23;;;17.90;61.10;;;;;;5116038;28;20172;-63
2024/03/25 12:00:28;;;;;;;3.43;3.13;;;18.00;61.30;;;;;;5115786;28;20393;-63
2024/03/25 12:02:55;;;;;;;4.30;3.90;;;18.10;59.00;;;;;;5115045;28;20248;-63
2024/03/25 12:05:20;;;;;;;6.63;4.60;;;17.90;56.90;;;;;;5115409;28;20953;-63
2024/03/25 12:07:46;;;;;;;5.37;4.97;;;17.70;56.00;;;;;;5110691;28;20520;-63
2024/03/25 12:12:56;;;;;;;4.60;4.23;;;17.30;58.60;;;;;;5112768;28;20207;-63
2024/03/25 12:15:22;;;;;;;4.90;4.20;;;17.40;58.30;;;;;;5114830;28;20761;-63
2024/03/25 12:17:51;;;;;;;5.80;4.60;;;17.40;58.30;;;;;;5114896;28;20254;-63
2024/03/25 12:20:17;;;;;;;4.63;4.00;;;17.10;58.50;;;;;;5115368;28;20417;-63
2024/03/25 12:22:44;;;;;;;4.30;4.00;;;17.10;59.00;;;;;;5110948;28;20421;-63
2024/03/25 12:25:10;;;;;;;4.50;4.10;;;17.20;59.20;;;;;;5096910;28;20405;-63
2024/03/25 12:27:37;;;;;;;4.80;4.40;;;17.30;60.30;;;;;;5115201;28;20413;-63
2024/03/25 12:30:08;;;;;;;3.83;3.53;;;17.30;57.10;;;;;;5113897;28;20420;-63
2024/03/25 12:32:33;;;;;;;4.10;3.90;;;17.30;59.00;;;;;;5115182;28;20445;-63
2024/03/25 12:34:59;;;;;;;6.93;4.23;;;17.40;59.20;;;;;;5115013;28;20412;-63
2024/03/25 12:37:28;;;;;;;4.13;3.80;;;17.40;58.80;;;;;;5114998;28;20212;-63
2024/03/25 12:39:54;;;;;;;4.30;3.50;;;17.30;57.20;;;;;;5096074;28;20178;-63
2024/03/25 12:42:20;;;;;;;4.60;3.60;;;17.30;57.40;;;;;;5114526;28;20909;-63
2024/03/25 12:44:46;;;;;;;4.23;2.97;;;17.30;58.20;;;;;;5114370;28;20173;-63
2024/03/25 12:47:11;;;;;;;7.30;3.63;;;16.90;56.90;;;;;;5114824;28;20484;-63
2024/03/25 12:49:37;;;;;;;3.60;3.30;;;16.80;57.10;;;;;;5083707;28;20168;-63
2024/03/25 12:52:06;;;;;;;12.47;8.60;;;16.80;59.10;;;;;;5093226;28;20164;-63